Time;durP1;ratioP1;P1;durP2;ratioP2;P2;SDS_P1;SDS_P2;PMS_P1;PMS_P2;Temp;Humidity;BMP_temperature;BMP_pressure;BME280_temperature;BME280_humidity;BME280_pressure;Samples;Min_cycle;Max_cycle;Signal;HPM_P1;HPM_P2
2023/03/19 00:01:15;;;;;;;0.10;0.10;;;9.70;99.90;;;;;;5096686;28;20036;-79
2023/03/19 00:03:40;;;;;;;0.25;0.25;;;9.80;99.90;;;;;;5089367;28;20048;-77
2023/03/19 00:06:06;;;;;;;0.35;0.30;;;9.70;99.90;;;;;;5081458;28;20873;-78
2023/03/19 00:08:32;;;;;;;0.32;0.32;;;9.70;99.90;;;;;;5082769;28;20024;-79
2023/03/19 00:10:57;;;;;;;0.10;0.10;;;9.80;99.90;;;;;;5077733;28;20034;-80
2023/03/19 00:13:23;;;;;;;0.20;0.20;;;9.70;99.90;;;;;;5077637;28;20097;-80
2023/03/19 00:15:49;;;;;;;0.10;0.10;;;9.80;99.90;;;;;;5077075;28;20085;-79
2023/03/19 00:18:15;;;;;;;0.20;0.20;;;9.80;99.90;;;;;;5060301;28;20096;-79
2023/03/19 00:20:41;;;;;;;0.10;0.10;;;9.80;99.90;;;;;;5076720;28;20023;-78
2023/03/19 00:23:08;;;;;;;0.10;0.10;;;9.80;99.90;;;;;;5082254;28;20016;-79
2023/03/19 00:25:33;;;;;;;0.20;0.20;;;9.80;99.90;;;;;;5076895;28;20024;-78
2023/03/19 00:27:59;;;;;;;0.10;0.10;;;9.80;99.90;;;;;;5084282;28;20467;-78
2023/03/19 00:30:25;;;;;;;0.20;0.20;;;9.70;99.90;;;;;;5077765;28;20068;-78
2023/03/19 00:32:50;;;;;;;0.80;0.63;;;9.70;99.90;;;;;;5071323;28;20112;-78
2023/03/19 00:35:16;;;;;;;0.10;0.10;;;9.40;99.90;;;;;;5073389;28;20039;-78
2023/03/19 00:37:42;;;;;;;0.70;0.38;;;9.40;99.90;;;;;;5059382;28;20032;-78
2023/03/19 00:40:09;;;;;;;0.25;0.25;;;9.50;99.90;;;;;;5075844;28;20085;-77
2023/03/19 00:42:35;;;;;;;;;;;9.40;99.90;;;;;;5062231;28;20432;-77
2023/03/19 00:45:01;;;;;;;0.10;0.10;;;9.50;99.90;;;;;;5079253;28;19922;-77
2023/03/19 00:47:26;;;;;;;0.28;0.28;;;9.40;99.90;;;;;;5080191;28;20442;-77
2023/03/19 00:49:52;;;;;;;0.10;0.10;;;9.50;99.90;;;;;;5081057;28;20020;-79
2023/03/19 00:52:18;;;;;;;1.25;0.52;;;9.60;99.90;;;;;;5062029;28;20104;-77
2023/03/19 00:54:44;;;;;;;0.10;0.10;;;9.50;99.90;;;;;;5081369;28;20081;-78
2023/03/19 00:57:10;;;;;;;0.10;0.10;;;9.50;99.90;;;;;;5080579;28;20031;-79
2023/03/19 00:59:36;;;;;;;0.10;0.10;;;9.60;99.90;;;;;;5081685;28;21155;-79
2023/03/19 01:02:02;;;;;;;0.10;0.10;;;9.50;99.90;;;;;;5061388;28;20024;-78
2023/03/19 01:04:28;;;;;;;2.28;2.15;;;9.50;99.90;;;;;;5092703;28;20055;-79
2023/03/19 01:06:53;;;;;;;1.50;1.42;;;9.50;99.90;;;;;;5093524;28;20151;-79
2023/03/19 01:09:20;;;;;;;1.98;1.88;;;9.50;99.90;;;;;;5099097;28;20849;-79
2023/03/19 01:11:45;;;;;;;22.67;3.75;;;9.50;99.90;;;;;;5096869;28;20042;-80
2023/03/19 01:14:11;;;;;;;0.20;0.20;;;9.50;99.90;;;;;;5095921;28;20035;-78
2023/03/19 01:16:37;;;;;;;3.78;1.73;;;9.50;99.90;;;;;;5095408;28;20141;-79
2023/03/19 01:19:03;;;;;;;0.82;0.82;;;9.60;99.90;;;;;;5095002;28;21000;-79
2023/03/19 01:21:31;;;;;;;0.10;0.10;;;9.60;99.90;;;;;;5076956;28;20031;-77
2023/03/19 01:23:57;;;;;;;0.70;0.70;;;9.70;99.90;;;;;;5097419;28;20032;-77
2023/03/19 01:26:23;;;;;;;0.38;0.38;;;9.70;99.90;;;;;;5089657;28;20032;-78
2023/03/19 01:28:49;;;;;;;0.20;0.20;;;9.70;99.90;;;;;;5099639;28;20389;-78
2023/03/19 01:31:15;;;;;;;0.17;0.17;;;9.70;99.90;;;;;;5094760;28;20043;-77
2023/03/19 01:33:41;;;;;;;0.10;0.10;;;9.80;99.90;;;;;;5083276;28;20052;-77
2023/03/19 01:36:08;;;;;;;0.13;0.13;;;9.80;99.90;;;;;;5074070;28;20028;-77
2023/03/19 01:38:33;;;;;;;0.10;0.10;;;9.80;99.90;;;;;;5091763;28;20028;-77
2023/03/19 01:41:00;;;;;;;0.10;0.10;;;9.80;99.90;;;;;;5097025;28;20035;-77
2023/03/19 01:43:30;;;;;;;0.22;0.22;;;9.80;99.90;;;;;;5097872;28;20149;-77
2023/03/19 01:46:15;;;;;;;0.40;0.40;;;9.80;99.90;;;;;;5093235;28;20051;-77
2023/03/19 01:48:47;;;;;;;0.10;0.10;;;9.80;99.90;;;;;;5090549;28;20129;-77
2023/03/19 01:51:15;;;;;;;2.30;2.20;;;9.80;99.90;;;;;;5089841;28;20044;-78
2023/03/19 01:53:46;;;;;;;4.30;3.88;;;9.80;99.90;;;;;;5074363;28;20054;-78
2023/03/19 01:56:17;;;;;;;0.20;0.20;;;9.70;99.90;;;;;;5076480;28;20055;-78
2023/03/19 01:58:47;;;;;;;0.30;0.30;;;9.70;99.90;;;;;;5095833;28;20751;-79
2023/03/19 02:01:13;;;;;;;0.10;0.10;;;9.80;99.90;;;;;;5100690;28;20023;-78
2023/03/19 02:03:40;;;;;;;0.10;0.10;;;9.70;99.90;;;;;;5100103;28;20050;-78
2023/03/19 02:06:07;;;;;;;0.13;0.13;;;9.70;99.90;;;;;;5071301;28;20777;-78
2023/03/19 02:08:35;;;;;;;0.20;0.20;;;9.70;99.90;;;;;;5094511;28;20593;-77
2023/03/19 02:11:01;;;;;;;3.00;0.73;;;9.60;99.90;;;;;;5094269;28;20099;-78
2023/03/19 02:13:27;;;;;;;0.10;0.10;;;9.60;99.90;;;;;;5086707;28;20020;-78
2023/03/19 02:15:53;;;;;;;0.20;0.20;;;9.60;99.90;;;;;;5088125;28;20132;-77
2023/03/19 02:18:20;;;;;;;9.02;1.02;;;9.70;99.90;;;;;;5093796;28;20531;-78
2023/03/19 02:20:49;;;;;;;;;;;9.70;99.90;;;;;;5092643;28;20020;-78
2023/03/19 02:23:42;;;;;;;0.70;0.70;;;9.70;99.90;;;;;;5095786;28;19907;-78
2023/03/19 02:26:10;;;;;;;0.20;0.20;;;9.70;99.90;;;;;;5086127;28;20027;-77
2023/03/19 02:28:41;;;;;;;0.93;0.93;;;9.70;99.90;;;;;;5095218;28;20369;-78
2023/03/19 02:31:07;;;;;;;0.10;0.10;;;9.70;99.90;;;;;;5098278;28;20035;-78
2023/03/19 02:33:33;;;;;;;0.10;0.10;;;9.80;99.90;;;;;;5086161;28;20751;-78
2023/03/19 02:36:01;;;;;;;0.10;0.10;;;9.80;99.90;;;;;;5090321;28;20032;-77
2023/03/19 02:38:29;;;;;;;0.10;0.10;;;9.70;99.90;;;;;;5101951;28;20030;-78
2023/03/19 02:41:03;;;;;;;0.10;0.10;;;9.80;99.90;;;;;;5094032;28;20114;-78
2023/03/19 02:43:31;;;;;;;0.10;0.10;;;9.80;99.90;;;;;;5070022;28;20027;-78
2023/03/19 02:45:57;;;;;;;0.45;0.45;;;9.80;99.90;;;;;;5072754;28;20101;-78
2023/03/19 02:48:23;;;;;;;0.10;0.10;;;9.70;99.90;;;;;;5093072;28;20028;-77
2023/03/19 02:50:49;;;;;;;0.10;0.10;;;9.80;99.90;;;;;;5100867;28;20047;-78
2023/03/19 02:53:14;;;;;;;0.10;0.10;;;9.80;99.90;;;;;;5091175;28;20028;-78
2023/03/19 02:55:41;;;;;;;0.10;0.10;;;9.80;99.90;;;;;;5086081;28;20032;-78
2023/03/19 02:58:07;;;;;;;0.75;0.75;;;9.90;99.90;;;;;;5086371;28;20027;-77
2023/03/19 03:00:33;;;;;;;0.10;0.10;;;9.80;99.90;;;;;;5095516;28;20828;-78
2023/03/19 03:02:59;;;;;;;0.20;0.20;;;9.80;99.90;;;;;;5095355;28;20043;-77
2023/03/19 03:05:25;;;;;;;0.10;0.10;;;9.80;99.90;;;;;;5098678;28;20028;-78
2023/03/19 03:07:50;;;;;;;0.10;0.10;;;9.80;99.90;;;;;;5096282;28;20020;-77
2023/03/19 03:10:16;;;;;;;0.20;0.20;;;9.90;99.90;;;;;;5096912;28;20444;-78
2023/03/19 03:12:42;;;;;;;0.10;0.10;;;9.80;99.90;;;;;;5080049;28;20869;-77
2023/03/19 03:15:08;;;;;;;0.10;0.10;;;9.90;99.90;;;;;;5099239;28;20027;-78
2023/03/19 03:17:39;;;;;;;0.20;0.20;;;9.80;99.90;;;;;;5079850;28;20037;-76
2023/03/19 03:20:07;;;;;;;0.47;0.47;;;9.80;99.90;;;;;;5093093;28;20031;-78
2023/03/19 03:22:33;;;;;;;0.20;0.20;;;9.90;99.90;;;;;;5074868;28;20020;-78
2023/03/19 03:24:58;;;;;;;0.30;0.30;;;9.80;99.90;;;;;;5091333;28;20024;-78
2023/03/19 03:27:24;;;;;;;0.10;0.10;;;9.80;99.90;;;;;;5096985;28;20416;-77
2023/03/19 03:29:50;;;;;;;0.10;0.10;;;9.80;99.90;;;;;;5094842;28;20057;-77
2023/03/19 03:32:16;;;;;;;0.47;0.47;;;9.70;99.90;;;;;;5096596;28;20082;-78
2023/03/19 03:34:41;;;;;;;1.50;1.45;;;9.70;99.90;;;;;;5096857;28;20135;-79
2023/03/19 03:37:08;;;;;;;2.17;1.35;;;9.80;99.90;;;;;;5097563;28;20483;-78
2023/03/19 03:39:33;;;;;;;0.10;0.10;;;9.70;99.90;;;;;;5078461;28;20100;-77
2023/03/19 03:41:59;;;;;;;0.20;0.20;;;9.80;99.90;;;;;;5096639;28;20126;-78
2023/03/19 03:44:25;;;;;;;0.10;0.10;;;9.80;99.90;;;;;;5098180;28;20615;-78
2023/03/19 03:46:51;;;;;;;0.17;0.17;;;9.80;99.90;;;;;;5084904;28;20104;-78
2023/03/19 03:49:17;;;;;;;0.10;0.10;;;9.80;99.90;;;;;;5101108;28;20026;-77
2023/03/19 03:51:42;;;;;;;0.10;0.10;;;9.90;99.90;;;;;;5089650;28;20031;-78
2023/03/19 03:54:08;;;;;;;0.10;0.10;;;9.80;99.90;;;;;;5098019;28;20375;-79
2023/03/19 03:56:34;;;;;;;0.10;0.10;;;9.80;99.90;;;;;;5092759;28;20032;-78
2023/03/19 03:59:00;;;;;;;0.10;0.10;;;9.90;99.90;;;;;;5096275;28;20026;-79
2023/03/19 04:01:26;;;;;;;0.15;0.15;;;9.90;99.90;;;;;;5094414;28;20395;-79
2023/03/19 04:03:53;;;;;;;0.10;0.10;;;9.90;99.90;;;;;;5083066;28;20044;-79
2023/03/19 04:06:21;;;;;;;0.10;0.10;;;9.90;99.90;;;;;;5076514;28;20036;-77
2023/03/19 04:08:47;;;;;;;0.60;0.35;;;9.90;99.90;;;;;;5079348;28;20016;-79
2023/03/19 04:11:13;;;;;;;0.10;0.10;;;9.80;99.90;;;;;;5072657;28;20048;-79
2023/03/19 04:13:38;;;;;;;0.10;0.10;;;9.80;99.90;;;;;;5072663;28;20048;-78
2023/03/19 04:16:06;;;;;;;0.10;0.10;;;9.70;99.90;;;;;;5078593;28;20103;-78
2023/03/19 04:18:33;;;;;;;0.10;0.10;;;9.60;99.90;;;;;;5075020;28;20121;-79
2023/03/19 04:20:58;;;;;;;0.10;0.10;;;9.70;99.90;;;;;;5060963;28;20032;-78
2023/03/19 04:23:24;;;;;;;0.10;0.10;;;9.70;99.90;;;;;;5075204;28;20030;-78
2023/03/19 04:25:50;;;;;;;0.20;0.20;;;9.60;99.90;;;;;;5076161;28;20088;-78
2023/03/19 04:28:16;;;;;;;0.22;0.22;;;9.60;99.90;;;;;;5080211;28;20270;-79
2023/03/19 04:30:44;;;;;;;0.10;0.10;;;9.60;99.90;;;;;;5071935;28;20035;-81
2023/03/19 04:33:10;;;;;;;0.10;0.10;;;9.50;99.90;;;;;;5078877;28;20078;-81
2023/03/19 04:35:36;;;;;;;0.40;0.40;;;9.50;99.90;;;;;;5081898;28;20032;-78
2023/03/19 04:38:02;;;;;;;0.10;0.10;;;9.40;99.90;;;;;;5076728;28;20784;-78
2023/03/19 04:40:29;;;;;;;0.10;0.10;;;9.40;99.90;;;;;;5058951;28;20139;-78
2023/03/19 04:42:55;;;;;;;0.10;0.10;;;9.40;99.90;;;;;;5077333;28;20032;-78
2023/03/19 04:45:20;;;;;;;0.10;0.10;;;9.40;99.90;;;;;;5081395;28;20038;-77
2023/03/19 04:47:46;;;;;;;0.43;0.43;;;9.40;99.90;;;;;;5075493;28;20032;-77
2023/03/19 04:50:12;;;;;;;0.10;0.10;;;9.40;99.90;;;;;;5079723;28;20029;-78
2023/03/19 04:52:38;;;;;;;0.10;0.10;;;9.50;99.90;;;;;;5077045;28;20491;-77
2023/03/19 04:55:05;;;;;;;0.25;0.25;;;9.40;99.90;;;;;;5078116;28;20086;-78
2023/03/19 04:57:31;;;;;;;;;;;9.50;99.90;;;;;;5076470;28;20016;-78
2023/03/19 04:59:57;;;;;;;2.55;1.08;;;9.50;99.90;;;;;;5081431;28;19919;-79
2023/03/19 05:02:22;;;;;;;0.20;0.20;;;9.50;99.90;;;;;;5077802;28;20032;-78
2023/03/19 05:04:48;;;;;;;0.47;0.47;;;9.50;99.90;;;;;;5085069;28;20193;-78
2023/03/19 05:07:14;;;;;;;0.10;0.10;;;9.50;99.90;;;;;;5063758;28;20554;-79
2023/03/19 05:09:42;;;;;;;0.10;0.10;;;9.50;99.90;;;;;;5081484;28;20032;-79
2023/03/19 05:12:08;;;;;;;0.10;0.10;;;9.50;99.90;;;;;;5074757;28;20032;-79
2023/03/19 05:14:33;;;;;;;0.20;0.20;;;9.50;99.90;;;;;;5081442;28;20036;-78
2023/03/19 05:16:59;;;;;;;0.25;0.25;;;9.60;99.90;;;;;;5081373;28;20030;-79
2023/03/19 05:19:25;;;;;;;0.20;0.20;;;9.60;99.90;;;;;;5081632;28;20766;-79
2023/03/19 05:21:51;;;;;;;0.10;0.10;;;9.50;99.90;;;;;;5081133;28;20055;-79
2023/03/19 05:24:16;;;;;;;0.15;0.15;;;9.50;99.90;;;;;;5081389;28;20582;-79
2023/03/19 05:26:42;;;;;;;0.10;0.10;;;9.50;99.90;;;;;;5061771;28;20063;-80
2023/03/19 05:29:09;;;;;;;0.10;0.10;;;9.50;99.90;;;;;;5080781;28;20054;-80
2023/03/19 05:31:36;;;;;;;0.10;0.10;;;9.40;99.90;;;;;;5080722;28;20036;-80
2023/03/19 05:34:02;;;;;;;0.10;0.10;;;9.50;99.90;;;;;;5079702;28;20494;-78
2023/03/19 05:36:28;;;;;;;0.10;0.10;;;9.40;99.90;;;;;;5077135;28;20035;-79
2023/03/19 05:38:54;;;;;;;0.10;0.10;;;9.40;99.90;;;;;;5080383;28;20036;-80
2023/03/19 05:41:20;;;;;;;0.15;0.15;;;9.50;99.90;;;;;;5079962;28;20031;-81
2023/03/19 05:43:46;;;;;;;0.40;0.40;;;9.50;99.90;;;;;;5081233;28;20028;-81
2023/03/19 05:46:12;;;;;;;0.10;0.10;;;9.40;99.90;;;;;;5081003;28;20097;-80
2023/03/19 05:48:38;;;;;;;0.10;0.10;;;9.40;99.90;;;;;;5080957;28;20268;-80
2023/03/19 05:51:04;;;;;;;0.10;0.10;;;9.40;99.90;;;;;;5080774;28;20099;-81
2023/03/19 05:53:30;;;;;;;0.10;0.10;;;9.40;99.90;;;;;;5062751;28;20032;-80
2023/03/19 05:55:56;;;;;;;0.10;0.10;;;9.40;99.90;;;;;;5062671;28;20031;-80
2023/03/19 05:58:21;;;;;;;0.10;0.10;;;9.50;99.90;;;;;;5081330;28;20028;-80
2023/03/19 06:00:47;;;;;;;0.10;0.10;;;9.50;99.90;;;;;;5081543;28;20032;-80
2023/03/19 06:03:14;;;;;;;0.10;0.10;;;9.60;99.90;;;;;;5065405;28;20213;-80
2023/03/19 06:05:39;;;;;;;0.30;0.30;;;9.50;99.90;;;;;;5101263;28;20031;-81
2023/03/19 06:08:05;;;;;;;0.20;0.20;;;9.50;99.90;;;;;;5083163;28;20039;-81
2023/03/19 06:10:33;;;;;;;0.17;0.17;;;9.50;99.90;;;;;;5100172;28;20119;-81
2023/03/19 06:12:59;;;;;;;0.10;0.10;;;9.50;99.90;;;;;;5094019;28;20554;-78
2023/03/19 06:15:26;;;;;;;0.10;0.10;;;9.40;99.90;;;;;;5085817;28;20031;-80
2023/03/19 06:17:51;;;;;;;2.83;1.85;;;9.50;99.90;;;;;;5104815;27;20521;-79
2023/03/19 06:20:17;;;;;;;0.55;0.52;;;9.40;99.90;;;;;;5102312;28;20027;-78
2023/03/19 06:22:43;;;;;;;0.10;0.10;;;9.40;99.90;;;;;;5103931;28;20502;-78
2023/03/19 06:25:10;;;;;;;0.10;0.10;;;9.40;99.90;;;;;;5093543;28;20027;-80
2023/03/19 06:27:35;;;;;;;0.20;0.20;;;9.50;99.90;;;;;;5097481;28;20108;-78
2023/03/19 06:30:01;;;;;;;0.10;0.10;;;9.40;99.90;;;;;;5100294;27;20024;-79
2023/03/19 06:32:27;;;;;;;0.10;0.10;;;9.50;99.90;;;;;;5105232;28;20490;-79
2023/03/19 06:34:55;;;;;;;0.10;0.10;;;9.50;99.90;;;;;;5105177;28;20103;-79
2023/03/19 06:37:21;;;;;;;0.10;0.10;;;9.50;99.90;;;;;;5086426;28;20729;-79
2023/03/19 06:39:48;;;;;;;0.45;0.45;;;9.60;99.90;;;;;;5101411;28;20110;-83
2023/03/19 06:42:13;;;;;;;0.10;0.10;;;9.50;99.90;;;;;;5101759;28;20043;-82
2023/03/19 06:44:39;;;;;;;0.20;0.20;;;9.50;99.90;;;;;;5103743;28;20157;-84
2023/03/19 06:47:07;;;;;;;0.10;0.10;;;9.70;99.90;;;;;;5104599;28;20503;-84
2023/03/19 06:49:32;;;;;;;0.10;0.10;;;9.70;99.90;;;;;;5103283;28;20026;-83
2023/03/19 06:51:58;;;;;;;0.10;0.10;;;9.80;99.90;;;;;;5103075;28;20474;-81
2023/03/19 06:54:24;;;;;;;0.10;0.10;;;10.00;99.90;;;;;;5103257;28;20514;-83
2023/03/19 06:56:50;;;;;;;0.10;0.10;;;9.90;99.90;;;;;;5104039;28;20023;-84
2023/03/19 06:59:16;;;;;;;1.85;1.40;;;10.00;99.90;;;;;;5103743;28;20054;-85
2023/03/19 07:01:42;;;;;;;1.47;0.93;;;10.10;99.90;;;;;;5085897;28;20027;-84
2023/03/19 07:04:08;;;;;;;0.50;0.50;;;10.20;99.90;;;;;;5103769;28;20047;-84
2023/03/19 07:06:34;;;;;;;0.60;0.60;;;10.20;99.90;;;;;;5103451;28;20035;-82
2023/03/19 07:09:00;;;;;;;2.57;0.83;;;10.30;99.90;;;;;;5103698;28;20032;-84
2023/03/19 07:11:26;;;;;;;3.38;3.17;;;10.60;99.90;;;;;;5102838;28;20841;-82
2023/03/19 07:13:51;;;;;;;7.30;3.90;;;10.80;99.90;;;;;;5101418;28;20023;-81
2023/03/19 07:16:17;;;;;;;11.88;3.78;;;10.60;99.90;;;;;;5103856;28;20525;-79
2023/03/19 07:18:43;;;;;;;15.00;5.53;;;10.60;99.90;;;;;;5098026;28;20101;-83
2023/03/19 07:21:08;;;;;;;2.92;2.65;;;10.40;99.90;;;;;;5096578;28;20487;-81
2023/03/19 07:23:34;;;;;;;1.55;1.45;;;10.40;99.90;;;;;;5097097;28;20100;-82
2023/03/19 07:26:00;;;;;;;2.58;1.77;;;10.60;99.90;;;;;;5101998;28;20024;-84
2023/03/19 07:28:26;;;;;;;0.45;0.35;;;10.80;99.90;;;;;;5098170;28;20019;-79
2023/03/19 07:30:52;;;;;;;0.40;0.40;;;10.80;99.90;;;;;;5100217;28;20040;-79
2023/03/19 07:33:19;;;;;;;12.82;1.52;;;10.70;99.90;;;;;;5100480;28;20104;-80
2023/03/19 07:35:44;;;;;;;2.35;1.80;;;10.60;99.90;;;;;;5091737;28;20140;-79
2023/03/19 07:38:10;;;;;;;2.05;1.63;;;10.60;99.90;;;;;;5083026;28;20415;-79
2023/03/19 07:40:36;;;;;;;1.45;0.70;;;10.50;99.90;;;;;;5080407;28;20139;-79
2023/03/19 07:43:02;;;;;;;0.30;0.30;;;10.60;99.90;;;;;;5084872;28;20020;-79
2023/03/19 07:45:28;;;;;;;0.52;0.52;;;10.50;99.90;;;;;;5090992;28;20030;-80
2023/03/19 07:47:54;;;;;;;0.15;0.15;;;10.40;99.90;;;;;;5083318;28;20032;-79
2023/03/19 07:50:20;;;;;;;0.30;0.30;;;10.20;99.90;;;;;;5089665;28;20027;-79
2023/03/19 07:52:52;;;;;;;1.70;1.60;;;10.20;99.90;;;;;;5088624;28;20034;-79
2023/03/19 07:55:18;;;;;;;0.55;0.52;;;10.20;99.90;;;;;;5086998;28;20600;-80
2023/03/19 07:57:44;;;;;;;0.85;0.85;;;10.20;99.90;;;;;;5073363;28;20032;-80
2023/03/19 08:00:10;;;;;;;0.73;0.73;;;10.30;99.90;;;;;;5078237;28;20034;-77
2023/03/19 08:02:36;;;;;;;0.22;0.22;;;10.50;99.90;;;;;;5073915;28;20031;-77
2023/03/19 08:05:03;;;;;;;1.02;1.02;;;10.50;99.90;;;;;;5083969;28;20784;-77
2023/03/19 08:07:30;;;;;;;1.67;1.58;;;10.40;99.90;;;;;;5089448;28;20095;-77
2023/03/19 08:09:57;;;;;;;1.75;1.02;;;10.50;99.90;;;;;;5084162;28;20085;-78
2023/03/19 08:12:23;;;;;;;1.00;0.90;;;10.70;99.90;;;;;;5083742;28;20486;-78
2023/03/19 08:14:49;;;;;;;0.52;0.17;;;11.10;99.90;;;;;;5094540;28;20681;-78
2023/03/19 08:17:15;;;;;;;0.10;0.10;;;11.20;99.90;;;;;;5089433;28;20036;-78
2023/03/19 08:19:42;;;;;;;0.75;0.75;;;11.30;99.90;;;;;;5098880;28;20024;-77
2023/03/19 08:22:08;;;;;;;1.70;1.60;;;11.20;99.90;;;;;;5078283;28;20031;-78
2023/03/19 08:24:33;;;;;;;5.13;2.23;;;11.00;99.90;;;;;;5093541;28;20028;-78
2023/03/19 08:26:59;;;;;;;1.08;0.70;;;10.90;99.90;;;;;;5085060;28;20077;-78
2023/03/19 08:29:26;;;;;;;0.10;0.10;;;10.90;99.90;;;;;;5087230;28;20016;-77
2023/03/19 08:31:52;;;;;;;0.63;0.63;;;10.80;99.90;;;;;;5087937;28;20499;-77
2023/03/19 08:34:18;;;;;;;0.77;0.77;;;10.70;99.90;;;;;;5083565;28;20056;-77
2023/03/19 08:36:44;;;;;;;0.50;0.50;;;10.50;99.90;;;;;;5083995;28;20108;-77
2023/03/19 08:39:10;;;;;;;0.90;0.85;;;10.70;99.90;;;;;;5088584;28;20036;-77
2023/03/19 08:41:35;;;;;;;0.10;0.10;;;10.60;99.90;;;;;;5088039;28;20028;-77
2023/03/19 08:44:01;;;;;;;0.10;0.10;;;10.70;99.90;;;;;;5089528;28;20085;-77
2023/03/19 08:46:28;;;;;;;0.10;0.10;;;10.90;99.90;;;;;;5090168;28;20015;-77
2023/03/19 08:48:53;;;;;;;0.10;0.10;;;10.80;99.90;;;;;;5090301;28;20086;-77
2023/03/19 08:51:19;;;;;;;0.33;0.33;;;10.90;99.90;;;;;;5101085;28;20051;-77
2023/03/19 08:53:45;;;;;;;0.27;0.20;;;10.80;99.90;;;;;;5094926;28;20032;-77
2023/03/19 08:56:11;;;;;;;2.05;0.57;;;11.00;99.90;;;;;;5083482;28;20084;-77
2023/03/19 08:58:36;;;;;;;0.32;0.32;;;11.00;99.90;;;;;;5069063;28;20023;-79
2023/03/19 09:01:10;;;;;;;0.57;0.57;;;10.70;99.90;;;;;;5087554;28;20049;-77
2023/03/19 09:03:37;;;;;;;0.20;0.20;;;10.80;99.90;;;;;;5082698;28;20042;-77
2023/03/19 09:06:05;;;;;;;1.55;1.35;;;10.60;99.90;;;;;;5068730;28;20097;-77
2023/03/19 09:08:31;;;;;;;1.00;0.90;;;10.70;99.90;;;;;;5082901;28;20023;-77
2023/03/19 09:10:57;;;;;;;0.40;0.40;;;11.10;99.90;;;;;;5069621;28;20116;-77
2023/03/19 09:13:24;;;;;;;1.05;0.95;;;11.50;99.90;;;;;;5084214;28;20028;-80
2023/03/19 09:15:50;;;;;;;0.70;0.65;;;11.80;99.90;;;;;;5083132;28;20028;-79
2023/03/19 09:18:16;;;;;;;0.98;0.90;;;11.90;99.90;;;;;;5086113;28;20032;-83
2023/03/19 09:20:42;;;;;;;0.90;0.90;;;11.80;99.90;;;;;;5091865;28;20040;-79
2023/03/19 09:23:08;;;;;;;0.68;0.68;;;11.50;99.90;;;;;;5082978;28;20031;-80
2023/03/19 09:25:34;;;;;;;1.20;0.93;;;11.40;99.90;;;;;;5069871;28;20811;-79
2023/03/19 09:28:00;;;;;;;5.20;1.42;;;11.40;99.90;;;;;;5091647;28;20034;-79
2023/03/19 09:30:26;;;;;;;4.53;3.47;;;11.50;99.90;;;;;;5080710;28;20028;-79
2023/03/19 09:32:51;;;;;;;1.40;1.27;;;11.50;99.90;;;;;;5100369;28;20376;-79
2023/03/19 09:35:17;;;;;;;0.47;0.47;;;11.90;99.90;;;;;;5083869;28;20039;-80
2023/03/19 09:37:43;;;;;;;0.50;0.47;;;12.20;99.90;;;;;;5099718;28;20582;-82
2023/03/19 09:40:26;;;;;;;0.27;0.27;;;12.60;99.90;;;;;;5078340;28;20066;-80
2023/03/19 09:42:51;;;;;;;0.47;0.47;;;13.40;99.90;;;;;;5076368;28;20046;-81
2023/03/19 09:45:19;;;;;;;0.65;0.65;;;14.10;99.90;;;;;;5102808;28;20019;-81
2023/03/19 09:47:52;;;;;;;0.15;0.15;;;14.30;99.90;;;;;;5104988;28;20031;-80
2023/03/19 09:50:23;;;;;;;1.58;1.48;;;14.50;99.90;;;;;;5096715;28;20024;-81
2023/03/19 09:53:09;;;;;;;1.02;0.95;;;13.70;99.90;;;;;;5099579;28;21213;-81
2023/03/19 09:56:03;;;;;;;0.22;0.22;;;14.00;99.90;;;;;;5088807;28;20070;-81
2023/03/19 09:58:35;;;;;;;0.10;0.10;;;13.60;99.90;;;;;;5088071;28;20043;-80
2023/03/19 10:01:01;;;;;;;0.20;0.20;;;13.60;99.90;;;;;;5091847;28;20079;-81
2023/03/19 10:03:56;;;;;;;1.85;1.75;;;13.80;99.90;;;;;;5086841;28;20062;-81
2023/03/19 10:06:34;;;;;;;0.22;0.22;;;13.70;99.90;;;;;;5050131;28;20040;-80
2023/03/19 10:09:16;;;;;;;0.17;0.17;;;13.50;99.90;;;;;;5090163;28;20028;-80
2023/03/19 10:11:55;;;;;;;1.38;1.27;;;13.50;99.90;;;;;;5089210;28;20458;-81
2023/03/19 10:14:51;;;;;;;1.95;0.98;;;13.10;99.90;;;;;;5088390;28;20020;-81
2023/03/19 10:17:24;;;;;;;0.68;0.68;;;12.50;99.90;;;;;;5077672;28;20036;-81
2023/03/19 10:20:01;;;;;;;0.50;0.50;;;12.10;99.90;;;;;;5096507;28;20035;-81
2023/03/19 10:22:36;;;;;;;0.70;0.70;;;11.60;99.90;;;;;;5103211;28;20080;-80
2023/03/19 10:25:04;;;;;;;0.75;0.75;;;11.00;99.90;;;;;;5095120;28;20114;-81
2023/03/19 10:27:30;;;;;;;0.50;0.50;;;10.90;99.90;;;;;;5075228;28;20097;-80
2023/03/19 10:29:56;;;;;;;0.90;0.88;;;10.90;99.90;;;;;;5100104;28;20044;-80
2023/03/19 10:32:47;;;;;;;1.10;1.00;;;11.30;99.90;;;;;;5099435;28;20690;-80
2023/03/19 10:35:23;;;;;;;0.68;0.68;;;11.50;99.90;;;;;;5093213;28;20106;-80
2023/03/19 10:37:54;;;;;;;0.20;0.20;;;12.20;99.90;;;;;;5094983;28;20055;-80
2023/03/19 10:40:35;;;;;;;0.57;0.57;;;13.00;99.90;;;;;;5103663;28;20062;-80
2023/03/19 10:43:19;;;;;;;0.30;0.30;;;13.80;99.90;;;;;;5096298;28;20027;-79
2023/03/19 10:45:45;;;;;;;0.47;0.47;;;13.80;99.90;;;;;;5101770;28;20028;-79
2023/03/19 10:48:18;;;;;;;0.20;0.20;;;13.50;99.90;;;;;;5099425;28;20032;-81
2023/03/19 10:50:52;;;;;;;0.73;0.70;;;13.90;99.90;;;;;;5099754;28;20046;-79
2023/03/19 10:53:17;;;;;;;0.32;0.32;;;14.30;99.90;;;;;;5102717;28;20084;-79
2023/03/19 10:55:49;;;;;;;1.45;1.35;;;14.70;99.90;;;;;;5096945;28;20032;-80
2023/03/19 10:58:21;;;;;;;0.10;0.10;;;13.10;99.90;;;;;;5094171;28;20027;-82
2023/03/19 11:00:54;;;;;;;10.32;1.40;;;12.40;99.90;;;;;;5090371;28;20525;-80
2023/03/19 11:03:34;;;;;;;0.70;0.70;;;12.20;99.90;;;;;;5091292;28;20048;-80
2023/03/19 11:06:06;;;;;;;0.40;0.40;;;12.40;99.90;;;;;;5093437;28;20023;-80
2023/03/19 11:08:36;;;;;;;0.30;0.30;;;12.40;99.90;;;;;;5091343;28;20023;-79
2023/03/19 11:11:02;;;;;;;0.10;0.10;;;12.50;99.90;;;;;;5085710;28;20040;-81
2023/03/19 11:13:29;;;;;;;0.10;0.10;;;12.20;99.90;;;;;;5091966;28;20039;-80
2023/03/19 11:15:58;;;;;;;0.25;0.25;;;12.00;99.90;;;;;;5102083;28;20087;-80
2023/03/19 11:18:29;;;;;;;0.10;0.10;;;12.20;99.90;;;;;;5095032;28;20062;-80
2023/03/19 11:21:13;;;;;;;1.02;0.93;;;12.40;99.90;;;;;;5094529;28;20406;-80
2023/03/19 11:23:41;;;;;;;0.10;0.10;;;12.30;99.90;;;;;;5102578;28;20035;-80
2023/03/19 11:26:08;;;;;;;0.38;0.38;;;12.20;99.90;;;;;;5099798;28;20022;-80
2023/03/19 11:28:36;;;;;;;0.35;0.35;;;12.40;99.90;;;;;;5090312;28;20051;-81
2023/03/19 11:31:21;;;;;;;1.73;1.63;;;13.10;99.90;;;;;;5099364;28;20587;-80
2023/03/19 11:33:54;;;;;;;0.00;0.00;;;13.40;99.90;;;;;;5099677;28;20125;-80
2023/03/19 11:36:31;;;;;;;0.38;0.38;;;13.60;99.90;;;;;;5078692;28;20028;-80
2023/03/19 11:39:31;;;;;;;0.00;0.00;;;13.50;99.90;;;;;;5096003;28;20108;-80
2023/03/19 11:42:15;;;;;;;1.35;1.27;;;13.80;99.90;;;;;;5096806;28;20015;-80
2023/03/19 11:44:47;;;;;;;0.45;0.45;;;14.20;99.90;;;;;;5097204;28;20028;-81
2023/03/19 11:47:20;;;;;;;0.00;0.00;;;15.10;99.90;;;;;;5099050;28;20121;-80
2023/03/19 11:49:50;;;;;;;0.00;0.00;;;15.40;99.90;;;;;;5099529;28;20577;-80
2023/03/19 11:52:49;;;;;;;0.20;0.20;;;15.50;99.90;;;;;;5094455;28;20486;-81
2023/03/19 11:55:52;;;;;;;0.00;0.00;;;15.50;99.90;;;;;;5090132;28;20042;-81
2023/03/19 11:58:28;;;;;;;0.40;0.40;;;14.50;99.90;;;;;;5069273;28;20048;-81
2023/03/19 12:01:02;;;;;;;0.00;0.00;;;13.80;99.90;;;;;;5091021;28;20028;-80
2023/03/19 12:04:00;;;;;;;0.40;0.40;;;13.20;99.90;;;;;;5090002;28;20639;-80
2023/03/19 12:06:35;;;;;;;0.15;0.15;;;13.20;99.90;;;;;;5022078;28;20048;-81
2023/03/19 12:09:19;;;;;;;0.13;0.13;;;13.30;99.90;;;;;;5083684;28;20090;-81
2023/03/19 12:12:10;;;;;;;0.17;0.17;;;13.70;99.90;;;;;;5088240;28;20051;-81
2023/03/19 12:14:44;;;;;;;0.08;0.08;;;13.70;99.90;;;;;;5088155;28;20023;-81
2023/03/19 12:17:22;;;;;;;0.10;0.10;;;13.40;99.90;;;;;;5090012;28;20162;-81
2023/03/19 12:20:06;;;;;;;0.00;0.00;;;13.20;99.90;;;;;;5088977;28;20027;-82
2023/03/19 12:22:49;;;;;;;0.10;0.10;;;13.30;99.90;;;;;;5085135;28;20831;-81
2023/03/19 12:25:44;;;;;;;0.35;0.35;;;13.10;99.90;;;;;;5088900;28;20032;-81
2023/03/19 12:28:27;;;;;;;1.80;1.65;;;13.20;99.90;;;;;;5073307;28;20060;-82
2023/03/19 12:30:58;;;;;;;0.73;0.73;;;13.80;99.90;;;;;;5079397;28;20032;-81
2023/03/19 12:33:33;;;;;;;0.08;0.08;;;13.80;99.90;;;;;;5089770;28;20748;-81
2023/03/19 12:36:01;;;;;;;0.30;0.30;;;14.00;99.90;;;;;;5090980;28;20023;-81
2023/03/19 12:38:53;;;;;;;0.90;0.90;;;14.50;99.90;;;;;;5099259;28;20525;-80
2023/03/19 12:41:19;;;;;;;1.73;0.45;;;14.40;99.90;;;;;;5076466;28;20032;-81
2023/03/19 12:43:48;;;;;;;0.17;0.17;;;14.70;99.90;;;;;;5094496;28;20483;-83
2023/03/19 12:46:36;;;;;;;0.00;0.00;;;14.50;99.90;;;;;;5097660;28;20062;-81
2023/03/19 12:49:06;;;;;;;0.20;0.20;;;14.70;99.90;;;;;;5097663;28;20035;-81
2023/03/19 12:51:37;;;;;;;0.20;0.20;;;14.60;99.90;;;;;;5092961;28;20892;-82
2023/03/19 12:54:16;;;;;;;0.20;0.20;;;14.80;99.90;;;;;;5090558;28;20032;-81
2023/03/19 12:56:53;;;;;;;0.00;0.00;;;14.90;99.90;;;;;;5091492;28;20020;-82
2023/03/19 12:59:44;;;;;;;0.10;0.10;;;14.60;99.90;;;;;;5097873;28;20040;-81
2023/03/19 13:02:28;;;;;;;1.55;0.57;;;14.60;99.90;;;;;;5101690;28;20031;-81